Time;durP1;ratioP1;P1;durP2;ratioP2;P2;SDS_P1;SDS_P2;PMS_P1;PMS_P2;Temp;Humidity;BMP_temperature;BMP_pressure;BME280_temperature;BME280_humidity;BME280_pressure;Samples;Min_cycle;Max_cycle;Signal;HPM_P1;HPM_P2
2022/11/13 00:02:05;;;;;;;29.98;19.17;;;;;;;4.06;100.00;94377.28;5072265;28;20145;-74
2022/11/13 00:04:32;;;;;;;49.70;30.38;;;;;;;3.97;100.00;94380.66;5089981;28;20075;-73
2022/11/13 00:07:00;;;;;;;34.90;24.83;;;;;;;3.87;100.00;94376.44;5092232;28;20075;-74
2022/11/13 00:09:26;;;;;;;35.97;23.85;;;;;;;3.79;100.00;94370.44;5092214;28;20089;-73
2022/11/13 00:11:53;;;;;;;37.13;23.45;;;;;;;3.87;100.00;94378.97;5092415;28;20435;-74
2022/11/13 00:14:20;;;;;;;33.47;19.40;;;;;;;3.80;100.00;94369.50;5092303;28;20048;-74
2022/11/13 00:16:47;;;;;;;25.23;16.58;;;;;;;3.82;100.00;94376.03;5091892;28;20105;-74
2022/11/13 00:19:13;;;;;;;26.42;18.02;;;;;;;3.83;100.00;94372.56;5091775;28;20129;-74
2022/11/13 00:21:40;;;;;;;26.65;16.75;;;;;;;3.77;100.00;94372.28;5092184;28;20049;-74
2022/11/13 00:24:08;;;;;;;24.90;16.35;;;;;;;3.72;100.00;94373.53;5091710;28;20105;-74
2022/11/13 00:26:35;;;;;;;24.95;16.77;;;;;;;3.72;100.00;94377.81;5091970;28;20133;-74
2022/11/13 00:29:03;;;;;;;25.00;16.35;;;;;;;3.74;100.00;94374.19;5092035;28;20047;-74
2022/11/13 00:31:31;;;;;;;29.60;18.85;;;;;;;3.71;100.00;94360.97;5092167;28;20121;-74
2022/11/13 00:33:57;;;;;;;34.20;20.40;;;;;;;3.79;100.00;94376.31;5091771;28;20106;-74
2022/11/13 00:36:26;;;;;;;34.17;20.30;;;;;;;3.74;100.00;94374.19;5091936;28;20453;-74
2022/11/13 00:38:53;;;;;;;34.80;21.27;;;;;;;3.66;100.00;94378.34;5090709;28;20133;-74
2022/11/13 00:41:22;;;;;;;36.45;22.83;;;;;;;3.56;100.00;94363.16;5091473;28;20048;-73
2022/11/13 00:43:49;;;;;;;37.45;24.52;;;;;;;3.65;100.00;94384.38;5091413;28;20113;-73
2022/11/13 00:46:16;;;;;;;35.85;23.05;;;;;;;3.66;100.00;94378.34;5091576;28;20481;-74
2022/11/13 00:48:42;;;;;;;34.40;23.23;;;;;;;3.61;100.00;94376.22;5091713;28;20455;-74
2022/11/13 00:51:09;;;;;;;34.70;23.70;;;;;;;3.63;100.00;94369.28;5091516;28;20133;-73
2022/11/13 00:53:36;;;;;;;32.10;21.20;;;;;;;3.52;100.00;94367.66;5091348;28;20056;-74
2022/11/13 00:56:03;;;;;;;30.75;20.67;;;;;;;3.45;100.00;94371.72;5091173;28;20083;-73
2022/11/13 00:58:31;;;;;;;32.67;20.42;;;;;;;3.39;100.00;94368.00;5091400;28;20044;-74
2022/11/13 01:01:04;;;;;;;34.60;20.98;;;;;;;3.43;100.00;94366.75;5091319;28;20117;-73
2022/11/13 01:03:31;;;;;;;32.67;20.27;;;;;;;3.46;100.00;94368.22;5091284;28;20368;-73
2022/11/13 01:05:58;;;;;;;29.73;19.30;;;;;;;3.44;100.00;94365.03;5091132;28;20048;-74
2022/11/13 01:08:25;;;;;;;32.47;18.63;;;;;;;3.47;100.00;94363.00;5090438;28;20101;-73
2022/11/13 01:10:51;;;;;;;33.25;19.52;;;;;;;3.47;100.00;94360.47;5091197;28;20093;-73
2022/11/13 01:13:18;;;;;;;33.38;19.05;;;;;;;3.54;100.00;94362.47;5090973;28;20091;-73
2022/11/13 01:15:46;;;;;;;38.78;22.25;;;;;;;3.57;100.00;94365.53;5090833;28;20488;-73
2022/11/13 01:18:13;;;;;;;39.25;23.40;;;;;;;3.59;100.00;94358.59;5090740;28;20555;-73
2022/11/13 01:20:40;;;;;;;45.75;26.88;;;;;;;3.51;100.00;94355.13;5091078;28;20098;-73
2022/11/13 01:23:08;;;;;;;39.25;24.60;;;;;;;3.57;100.00;94373.16;5090830;28;20056;-73
2022/11/13 01:25:34;;;;;;;40.17;22.63;;;;;;;3.54;100.00;94373.44;5090909;28;20531;-73
2022/11/13 01:28:01;;;;;;;39.95;23.27;;;;;;;3.53;100.00;94376.91;5090565;28;20098;-72
2022/11/13 01:30:28;;;;;;;40.00;22.27;;;;;;;3.47;100.00;94382.53;5090376;28;20100;-73
2022/11/13 01:32:56;;;;;;;34.78;20.45;;;;;;;3.48;100.00;94386.69;5090533;28;20205;-72
2022/11/13 01:35:23;;;;;;;31.10;18.30;;;;;;;3.45;100.00;94386.94;5090835;28;20085;-73
2022/11/13 01:37:49;;;;;;;31.48;19.63;;;;;;;3.40;100.00;94378.94;5090373;28;20044;-73
2022/11/13 01:40:16;;;;;;;36.17;20.55;;;;;;;3.34;100.00;94377.75;5090228;28;20097;-73
2022/11/13 01:42:43;;;;;;;33.33;21.02;;;;;;;3.33;100.00;94371.84;5090444;28;20501;-73
2022/11/13 01:45:47;;;;;;;36.35;20.80;;;;;;;3.30;100.00;94378.94;5090567;28;20496;-72
2022/11/13 01:48:15;;;;;;;31.35;19.80;;;;;;;3.24;100.00;94374.41;5090223;28;20048;-72
2022/11/13 01:50:42;;;;;;;34.50;20.60;;;;;;;3.20;100.00;94366.28;5089537;28;20040;-72
2022/11/13 01:53:09;;;;;;;35.20;20.67;;;;;;;3.20;100.00;94366.28;5090201;28;20638;-73
2022/11/13 01:55:36;;;;;;;31.50;19.60;;;;;;;3.21;100.00;94366.13;5089805;28;20051;-73
2022/11/13 01:58:06;;;;;;;31.48;19.65;;;;;;;3.14;100.00;94362.53;5090452;28;20048;-73
2022/11/13 02:00:33;;;;;;;35.05;19.60;;;;;;;3.15;100.00;94364.13;5090031;28;20562;-73
2022/11/13 02:02:59;;;;;;;31.13;19.98;;;;;;;3.16;100.00;94367.47;5090365;28;20044;-73
2022/11/13 02:05:28;;;;;;;29.85;17.80;;;;;;;3.16;100.00;94367.47;5089927;28;20044;-73
2022/11/13 02:07:56;;;;;;;29.63;16.95;;;;;;;3.16;100.00;94372.56;5090176;28;20114;-72
2022/11/13 02:10:22;;;;;;;26.45;16.02;;;;;;;3.12;100.00;94383.91;5090206;28;20113;-73
2022/11/13 02:12:51;;;;;;;24.88;15.68;;;;;;;3.03;100.00;94377.91;5089524;28;20090;-73
2022/11/13 02:15:22;;;;;;;28.50;15.75;;;;;;;3.02;100.00;94394.84;5090043;28;20079;-73
2022/11/13 02:17:52;;;;;;;24.98;14.55;;;;;;;3.01;100.00;94388.19;5069996;28;20080;-73
2022/11/13 02:20:25;;;;;;;27.48;16.52;;;;;;;2.99;100.00;94390.06;5069650;28;20044;-73
2022/11/13 02:23:00;;;;;;;25.63;15.75;;;;;;;3.00;100.00;94386.56;5087253;28;20048;-73
2022/11/13 02:25:32;;;;;;;23.67;14.95;;;;;;;3.01;100.00;94385.63;5089942;28;20441;-73
2022/11/13 02:27:58;;;;;;;24.73;14.70;;;;;;;2.91;100.00;94390.72;5089765;28;20036;-73
2022/11/13 02:30:28;;;;;;;26.35;15.07;;;;;;;2.89;100.00;94387.53;5098330;28;20047;-73
2022/11/13 02:32:57;;;;;;;28.88;16.90;;;;;;;2.83;100.00;94372.81;5109994;28;20570;-73
2022/11/13 02:35:27;;;;;;;24.95;15.38;;;;;;;2.92;100.00;94386.47;5110209;28;20043;-73
2022/11/13 02:37:56;;;;;;;28.17;15.98;;;;;;;2.90;100.00;94389.13;5110395;28;20104;-73
2022/11/13 02:40:24;;;;;;;26.73;15.50;;;;;;;2.90;100.00;94381.50;5110381;28;20047;-73
2022/11/13 02:42:52;;;;;;;24.05;15.40;;;;;;;2.91;100.00;94389.91;5110147;28;20168;-73
2022/11/13 02:45:19;;;;;;;28.23;17.25;;;;;;;2.89;100.00;94391.78;5110285;28;20165;-72
2022/11/13 02:47:46;;;;;;;27.02;16.48;;;;;;;2.92;100.00;94399.16;5109550;28;20076;-73
2022/11/13 02:50:14;;;;;;;24.77;15.75;;;;;;;2.91;100.00;94400.06;5109947;28;20083;-75
2022/11/13 02:52:41;;;;;;;28.95;15.50;;;;;;;2.88;100.00;94402.88;5110287;28;20043;-75
2022/11/13 02:55:08;;;;;;;23.50;14.80;;;;;;;2.88;100.00;94403.66;5081126;28;20096;-73
2022/11/13 02:57:35;;;;;;;26.15;14.98;;;;;;;2.85;100.00;94403.13;5109972;28;20088;-72
2022/11/13 03:00:04;;;;;;;26.20;15.25;;;;;;;2.81;100.00;94387.38;5109893;28;20075;-73
2022/11/13 03:02:31;;;;;;;24.73;15.13;;;;;;;2.87;100.00;94406.34;5109594;28;20054;-73
2022/11/13 03:04:58;;;;;;;30.33;17.58;;;;;;;2.89;100.00;94407.00;5110001;28;20043;-72
2022/11/13 03:07:25;;;;;;;25.95;16.65;;;;;;;2.89;100.00;94404.47;5109742;28;20634;-73
2022/11/13 03:09:51;;;;;;;31.27;18.08;;;;;;;2.80;100.00;94393.38;5109806;28;20558;-72
2022/11/13 03:12:18;;;;;;;27.98;16.80;;;;;;;2.86;100.00;94405.53;5109631;28;20072;-72
2022/11/13 03:14:45;;;;;;;29.40;16.85;;;;;;;2.85;100.00;94411.56;5109735;28;20079;-72
2022/11/13 03:17:13;;;;;;;30.75;17.60;;;;;;;2.74;100.00;94389.63;5109643;28;20090;-72
2022/11/13 03:19:39;;;;;;;21.88;14.70;;;;;;;2.84;100.00;94409.94;5109656;28;20040;-72
2022/11/13 03:22:06;;;;;;;25.52;15.18;;;;;;;2.80;100.00;94413.69;5109647;28;20100;-72
2022/11/13 03:24:33;;;;;;;40.42;21.25;;;;;;;2.52;100.00;94378.81;5109823;28;20047;-73
2022/11/13 03:27:00;;;;;;;34.85;19.45;;;;;;;2.71;100.00;94412.72;5109986;28;20402;-72
2022/11/13 03:29:26;;;;;;;33.67;18.35;;;;;;;2.68;100.00;94410.44;5109863;28;20476;-73
2022/11/13 03:31:53;;;;;;;32.80;17.08;;;;;;;2.64;100.00;94412.44;5109321;28;20079;-73
2022/11/13 03:34:21;;;;;;;30.02;17.35;;;;;;;2.59;100.00;94409.50;5109452;28;21020;-72
2022/11/13 03:36:48;;;;;;;28.05;16.13;;;;;;;2.56;100.00;94412.31;5109808;28;20047;-73
2022/11/13 03:39:15;;;;;;;27.00;14.30;;;;;;;2.52;100.00;94410.97;5109225;28;20075;-73
2022/11/13 03:41:41;;;;;;;26.63;14.93;;;;;;;2.49;100.00;94421.34;5109511;28;20059;-73
2022/11/13 03:44:08;;;;;;;23.73;14.43;;;;;;;2.34;100.00;94410.78;5109831;28;20056;-72
2022/11/13 03:46:35;;;;;;;22.48;13.77;;;;;;;2.47;100.00;94429.13;5109544;28;20048;-72
2022/11/13 03:49:02;;;;;;;26.80;14.23;;;;;;;2.40;100.00;94416.13;5109434;28;20040;-73
2022/11/13 03:51:30;;;;;;;26.33;14.82;;;;;;;2.43;100.00;94415.06;5106382;28;20173;-73
2022/11/13 03:53:57;;;;;;;28.92;15.80;;;;;;;2.12;100.00;94379.59;5087452;28;20074;-73
2022/11/13 03:56:23;;;;;;;28.60;17.30;;;;;;;2.38;100.00;94419.72;5092152;28;20063;-73
2022/11/13 03:58:50;;;;;;;24.20;17.45;;;;;;;2.45;100.00;94420.81;5109159;28;20048;-73
2022/11/13 04:01:17;;;;;;;27.25;16.52;;;;;;;2.54;100.00;94416.69;5109268;28;20534;-73
2022/11/13 04:03:43;;;;;;;27.10;16.23;;;;;;;2.60;100.00;94415.38;5109188;28;20497;-73
2022/11/13 04:06:10;;;;;;;28.30;15.02;;;;;;;2.65;100.00;94410.72;5109569;28;20044;-73
2022/11/13 04:08:38;;;;;;;24.42;15.00;;;;;;;2.68;100.00;94415.53;5108950;28;20048;-73
2022/11/13 04:11:09;;;;;;;22.92;14.05;;;;;;;2.76;100.00;94422.47;5109342;28;20079;-73
2022/11/13 04:13:35;;;;;;;32.42;19.83;;;;;;;2.78;100.00;94423.97;5111934;28;20105;-73
2022/11/13 04:16:02;;;;;;;29.00;17.90;;;;;;;2.75;100.00;94418.34;5113124;28;20485;-73
2022/11/13 04:18:29;;;;;;;25.05;16.17;;;;;;;2.73;100.00;94412.63;5113056;28;20470;-73
2022/11/13 04:20:59;;;;;;;35.10;19.55;;;;;;;2.79;100.00;94424.78;5112442;28;20500;-73
2022/11/13 04:23:26;;;;;;;31.45;19.05;;;;;;;2.82;100.00;94416.88;5113340;28;20091;-73
2022/11/13 04:25:54;;;;;;;30.70;18.35;;;;;;;2.90;100.00;94418.75;5112978;28;20079;-73
2022/11/13 04:28:20;;;;;;;36.72;22.63;;;;;;;2.94;100.00;94415.03;5112712;28;20048;-73
2022/11/13 04:30:47;;;;;;;33.17;20.75;;;;;;;2.98;100.00;94423.19;5112828;28;20152;-73
2022/11/13 04:33:14;;;;;;;29.88;18.08;;;;;;;3.00;100.00;94422.13;5112740;28;20124;-73
2022/11/13 04:35:47;;;;;;;23.60;14.93;;;;;;;3.05;100.00;94416.63;5112491;28;20108;-73
2022/11/13 04:38:14;;;;;;;22.85;13.60;;;;;;;3.07;100.00;94424.94;5112621;28;20134;-73
2022/11/13 04:40:40;;;;;;;24.08;13.43;;;;;;;3.09;100.00;94432.41;5112755;28;20526;-73
2022/11/13 04:43:07;;;;;;;19.70;11.63;;;;;;;3.07;100.00;94425.72;5112225;28;20508;-73
2022/11/13 04:45:35;;;;;;;23.73;13.13;;;;;;;3.06;100.00;94416.50;5105265;28;20041;-73
2022/11/13 04:48:02;;;;;;;22.92;12.45;;;;;;;3.14;100.00;94425.22;5099411;28;20047;-73
2022/11/13 04:50:29;;;;;;;25.42;13.05;;;;;;;3.20;100.00;94422.13;5112554;28;20044;-73
2022/11/13 04:52:55;;;;;;;29.83;13.45;;;;;;;3.20;100.00;94422.91;5112050;27;20044;-74
2022/11/13 04:55:22;;;;;;;26.95;13.98;;;;;;;3.19;100.00;94420.50;5083406;28;20073;-73
2022/11/13 04:57:50;;;;;;;27.70;13.85;;;;;;;3.26;100.00;94428.41;5112397;27;20104;-74
2022/11/13 05:00:18;;;;;;;26.95;13.15;;;;;;;3.30;100.00;94432.28;5111646;28;20429;-73
2022/11/13 05:02:45;;;;;;;28.92;14.27;;;;;;;3.33;100.00;94432.81;5107174;28;20100;-73
2022/11/13 05:05:12;;;;;;;28.17;15.20;;;;;;;3.37;100.00;94428.25;5084531;28;20056;-73
2022/11/13 05:07:41;;;;;;;28.77;16.38;;;;;;;3.42;100.00;94430.41;5078184;28;20047;-72
2022/11/13 05:10:08;;;;;;;27.55;14.38;;;;;;;3.44;100.00;94428.53;5093944;28;20052;-73
2022/11/13 05:12:35;;;;;;;20.05;13.65;;;;;;;3.46;100.00;94430.00;5090538;28;20398;-73
2022/11/13 05:15:01;;;;;;;23.13;14.30;;;;;;;3.49;100.00;94431.47;5094302;28;20044;-74
2022/11/13 05:17:29;;;;;;;24.75;15.57;;;;;;;3.53;100.00;94432.81;5094072;28;20056;-74
2022/11/13 05:19:56;;;;;;;28.73;16.77;;;;;;;3.54;100.00;94431.88;5108047;28;20489;-73
2022/11/13 05:22:23;;;;;;;32.38;18.65;;;;;;;3.51;100.00;94429.59;5091898;28;20342;-74
2022/11/13 05:24:50;;;;;;;29.83;18.88;;;;;;;3.57;100.00;94425.72;5091730;28;20470;-74
2022/11/13 05:27:16;;;;;;;33.55;19.75;;;;;;;3.64;100.00;94421.69;5093712;28;20052;-72
2022/11/13 05:29:43;;;;;;;34.63;20.42;;;;;;;3.66;100.00;94429.19;5109162;28;20039;-73
2022/11/13 05:32:10;;;;;;;38.95;21.02;;;;;;;3.66;100.00;94427.41;5093820;28;20148;-72
2022/11/13 05:34:38;;;;;;;34.67;18.80;;;;;;;3.53;100.00;94386.28;5107475;28;20401;-73
2022/11/13 05:37:05;;;;;;;31.33;18.55;;;;;;;3.81;100.00;94424.47;5105390;28;20055;-73
2022/11/13 05:39:31;;;;;;;34.97;18.10;;;;;;;3.84;100.00;94432.59;5098330;28;20109;-73
2022/11/13 05:41:58;;;;;;;35.85;18.05;;;;;;;3.96;100.00;94428.16;5096357;28;20039;-73
2022/11/13 05:44:25;;;;;;;38.90;17.63;;;;;;;4.02;100.00;94436.97;5095993;28;20539;-73
2022/11/13 05:46:51;;;;;;;35.20;18.00;;;;;;;4.05;100.00;94436.72;5087599;28;20048;-73
2022/11/13 05:49:18;;;;;;;45.03;19.42;;;;;;;4.13;100.00;94436.03;5095120;28;20101;-72
2022/11/13 05:51:46;;;;;;;41.15;17.70;;;;;;;4.15;100.00;94426.50;5093467;28;20120;-73
2022/11/13 05:54:13;;;;;;;51.47;20.30;;;;;;;4.00;100.00;94404.09;5095855;28;20052;-72
2022/11/13 05:56:40;;;;;;;55.17;23.05;;;;;;;4.25;100.00;94439.16;5091176;28;20071;-73
2022/11/13 05:59:07;;;;;;;67.28;31.70;;;;;;;4.29;100.00;94443.03;5098730;28;20097;-73
2022/11/13 06:01:36;;;;;;;70.25;35.28;;;;;;;4.31;100.00;94442.91;5098107;28;20570;-73
2022/11/13 06:04:04;;;;;;;71.15;36.47;;;;;;;4.31;100.00;94448.81;5097692;28;20137;-73
2022/11/13 06:06:31;;;;;;;83.00;42.78;;;;;;;4.08;100.00;94428.00;5094653;28;20105;-73
2022/11/13 06:09:02;;;;;;;68.47;35.05;;;;;;;4.15;100.00;94446.84;5096523;28;20040;-73
2022/11/13 06:11:30;;;;;;;73.78;32.13;;;;;;;4.13;100.00;94451.28;5097340;28;20101;-73
2022/11/13 06:13:58;;;;;;;75.20;31.55;;;;;;;4.18;100.00;94448.31;5102294;28;20048;-73
2022/11/13 06:16:27;;;;;;;81.03;34.67;;;;;;;4.19;100.00;94443.09;5093645;28;20501;-72
2022/11/13 06:18:56;;;;;;;58.40;29.25;;;;;;;4.20;100.00;94454.03;5095660;28;20103;-72
2022/11/13 06:21:25;;;;;;;59.50;30.00;;;;;;;4.20;100.00;94446.41;5110751;28;20057;-73
2022/11/13 06:23:52;;;;;;;67.82;30.52;;;;;;;4.30;100.00;94452.28;5110704;28;20075;-72
2022/11/13 06:26:23;;;;;;;59.50;30.13;;;;;;;4.30;100.00;94441.31;5104676;28;20521;-73
2022/11/13 06:28:50;;;;;;;59.17;31.60;;;;;;;4.34;100.00;94453.59;5084114;28;20378;-73
2022/11/13 06:31:19;;;;;;;65.78;34.28;;;;;;;4.44;100.00;94453.56;5108346;28;20083;-75
2022/11/13 06:33:46;;;;;;;71.85;38.17;;;;;;;4.37;100.00;94455.88;5110555;28;20514;-74
2022/11/13 06:36:15;;;;;;;60.95;30.40;;;;;;;4.35;100.00;94452.66;5109443;28;20047;-75
2022/11/13 06:38:43;;;;;;;58.40;26.25;;;;;;;4.43;100.00;94451.19;5110267;28;20051;-74
2022/11/13 06:41:12;;;;;;;53.03;25.83;;;;;;;4.38;100.00;94444.75;5110413;28;20489;-74
2022/11/13 06:43:40;;;;;;;58.75;25.50;;;;;;;4.57;100.00;94447.34;5109872;28;20523;-74
2022/11/13 06:46:11;;;;;;;41.30;22.25;;;;;;;4.65;100.00;94432.16;5109953;28;20105;-74
2022/11/13 06:48:38;;;;;;;51.75;25.67;;;;;;;4.85;100.00;94447.34;5109687;28;20573;-74
2022/11/13 06:51:09;;;;;;;45.92;24.75;;;;;;;4.98;100.00;94452.06;5110297;28;20039;-75
2022/11/13 06:53:36;;;;;;;51.00;24.67;;;;;;;5.10;100.00;94450.94;5104762;28;20044;-76
2022/11/13 06:56:05;;;;;;;44.00;24.02;;;;;;;5.25;100.00;94453.78;5086718;28;20509;-76
2022/11/13 06:58:32;;;;;;;44.63;22.27;;;;;;;5.29;100.00;94444.09;5095517;28;20493;-75
2022/11/13 07:01:06;;;;;;;47.60;24.40;;;;;;;5.37;100.00;94448.47;5100251;28;20150;-75
2022/11/13 07:03:33;;;;;;;47.10;23.77;;;;;;;5.47;100.00;94439.00;5103370;28;20047;-75
2022/11/13 07:06:01;;;;;;;43.90;24.02;;;;;;;5.56;100.00;94442.41;5109967;28;20451;-74
2022/11/13 07:08:28;;;;;;;43.28;23.48;;;;;;;5.54;100.00;94442.53;5109841;28;20139;-75
2022/11/13 07:10:56;;;;;;;42.05;22.90;;;;;;;5.58;100.00;94431.09;5109451;28;20097;-74
2022/11/13 07:13:23;;;;;;;41.55;23.70;;;;;;;5.72;100.00;94436.59;5109880;28;20109;-74
2022/11/13 07:15:50;;;;;;;45.42;22.42;;;;;;;5.96;100.00;94442.81;5108990;28;20390;-74
2022/11/13 07:18:18;;;;;;;40.13;23.40;;;;;;;6.11;100.00;94451.53;5098198;28;20142;-74
2022/11/13 07:20:45;;;;;;;42.13;23.75;;;;;;;6.30;100.00;94439.53;5109796;28;20553;-75
2022/11/13 07:23:12;;;;;;;43.92;23.75;;;;;;;6.44;100.00;94448.38;5109115;28;20045;-74
2022/11/13 07:25:38;;;;;;;41.03;23.88;;;;;;;6.59;100.00;94440.94;5109716;28;20075;-73
2022/11/13 07:28:11;;;;;;;47.85;24.98;;;;;;;6.68;100.00;94449.41;5109415;28;20043;-73
2022/11/13 07:30:37;;;;;;;48.95;25.58;;;;;;;6.78;100.00;94456.94;5109591;28;20133;-73
2022/11/13 07:33:05;;;;;;;53.72;27.05;;;;;;;6.97;100.00;94458.44;5109392;28;20100;-73
2022/11/13 07:35:33;;;;;;;73.93;44.20;;;;;;;7.12;100.00;94452.72;5109540;28;20128;-73
2022/11/13 07:38:00;;;;;;;76.05;46.40;;;;;;;7.30;100.00;94458.50;5109418;28;20052;-73
2022/11/13 07:40:26;;;;;;;61.00;35.55;;;;;;;7.45;100.00;94457.88;5109343;28;20184;-73
2022/11/13 07:42:58;;;;;;;63.40;34.58;;;;;;;7.57;100.00;94460.91;5108865;28;20087;-73
2022/11/13 07:45:25;;;;;;;58.88;32.50;;;;;;;7.68;100.00;94463.13;5109274;28;20135;-73
2022/11/13 07:47:52;;;;;;;66.15;35.22;;;;;;;7.70;100.00;94445.91;5110907;28;20470;-73
2022/11/13 07:50:18;;;;;;;85.38;49.53;;;;;;;7.93;100.00;94452.09;5113133;28;20108;-74
2022/11/13 07:52:46;;;;;;;55.47;32.22;;;;;;;8.09;100.00;94451.25;5112964;28;20075;-74
2022/11/13 07:55:13;;;;;;;44.75;23.10;;;;;;;7.94;100.00;94454.50;5081398;28;20459;-73
2022/11/13 07:57:40;;;;;;;50.75;23.52;;;;;;;7.92;100.00;94438.50;5113149;28;20055;-74
2022/11/13 08:00:08;;;;;;;49.15;24.48;;;;;;;7.96;100.00;94442.34;5113217;28;20056;-74
2022/11/13 08:02:35;;;;;;;48.45;22.67;;;;;;;8.02;100.00;94438.34;5108100;28;20051;-74
2022/11/13 08:05:01;;;;;;;55.42;29.20;;;;;;;8.03;100.00;94434.81;5113187;28;20104;-74
2022/11/13 08:07:28;;;;;;;68.35;35.63;;;;;;;8.16;100.00;94449.66;5098526;28;20493;-74
2022/11/13 08:09:56;;;;;;;50.00;26.40;;;;;;;8.29;100.00;94437.13;5113061;27;20109;-74
2022/11/13 08:12:23;;;;;;;33.72;18.55;;;;;;;8.51;100.00;94441.69;5112730;28;20104;-73
2022/11/13 08:14:49;;;;;;;33.63;17.25;;;;;;;8.50;100.00;94442.66;5113028;28;20090;-74
2022/11/13 08:17:16;;;;;;;27.88;15.27;;;;;;;8.70;100.00;94455.91;5102623;28;20048;-74
2022/11/13 08:19:43;;;;;;;26.38;15.40;;;;;;;9.09;100.00;94452.50;5112762;28;20096;-74
2022/11/13 08:22:10;;;;;;;25.02;13.70;;;;;;;9.08;100.00;94450.13;5112600;28;20140;-74
2022/11/13 08:24:36;;;;;;;26.23;13.90;;;;;;;9.20;100.00;94442.84;5112492;27;20394;-73
2022/11/13 08:27:06;;;;;;;27.60;15.45;;;;;;;9.59;100.00;94459.09;5112642;28;20055;-74
2022/11/13 08:29:36;;;;;;;31.95;16.55;;;;;;;9.81;100.00;94466.94;5112840;28;20104;-73
2022/11/13 08:32:02;;;;;;;27.75;16.63;;;;;;;9.76;100.00;94472.56;5112647;28;20048;-73
2022/11/13 08:34:29;;;;;;;26.58;13.93;;;;;;;9.65;100.00;94472.97;5112624;28;20039;-73
2022/11/13 08:36:56;;;;;;;28.83;15.82;;;;;;;9.48;100.00;94463.66;5112436;28;20048;-74
2022/11/13 08:39:22;;;;;;;31.95;16.15;;;;;;;9.75;100.00;94463.28;5111974;28;20082;-73
2022/11/13 08:41:49;;;;;;;31.45;16.77;;;;;;;9.95;100.00;94473.06;5112171;28;20071;-73
2022/11/13 08:44:17;;;;;;;37.70;18.60;;;;;;;10.21;100.00;94469.28;5112052;28;20374;-73
2022/11/13 08:46:44;;;;;;;35.65;17.30;;;;;;;10.41;100.00;94470.38;5112398;28;20378;-73
2022/11/13 08:49:11;;;;;;;30.75;16.60;;;;;;;10.27;100.00;94478.84;5111718;28;20047;-73
2022/11/13 08:51:37;;;;;;;33.72;17.77;;;;;;;10.08;100.00;94477.59;5089486;28;20045;-74
2022/11/13 08:54:04;;;;;;;23.23;13.40;;;;;;;9.84;100.00;94479.41;5073558;28;20105;-73
2022/11/13 08:56:31;;;;;;;27.77;15.38;;;;;;;9.98;100.00;94480.41;5070944;28;20105;-73
2022/11/13 09:01:47;;;;;;;22.05;14.10;;;;;;;9.54;100.00;94472.41;5067262;28;20052;-73
2022/11/13 09:04:16;;;;;;;19.10;11.77;;;;;;;9.78;100.00;94487.81;5071195;28;20052;-73
2022/11/13 09:06:50;;;;;;;18.00;12.05;;;;;;;9.58;100.00;94486.50;5071316;28;20056;-73
2022/11/13 09:09:22;;;;;;;16.13;11.70;;;;;;;9.77;100.00;94481.88;5070983;28;20083;-74
2022/11/13 09:11:51;;;;;;;12.40;8.90;;;;;;;10.05;100.00;94475.38;5069577;28;20044;-74
2022/11/13 09:14:18;;;;;;;15.32;10.82;;;;;;;10.24;100.00;94476.66;5068677;28;20383;-74
2022/11/13 09:16:46;;;;;;;13.38;9.65;;;;;;;10.05;100.00;94450.53;5070699;28;20102;-74
2022/11/13 09:19:12;;;;;;;12.48;9.57;;;;;;;10.33;100.00;94479.94;5071252;28;20220;-73
2022/11/13 09:21:39;;;;;;;84.60;38.22;;;;;;;10.60;100.00;94480.34;5071235;28;20051;-73
2022/11/13 09:24:07;;;;;;;21.85;14.43;;;;;;;10.71;100.00;94471.38;5096581;28;20062;-74
2022/11/13 09:26:34;;;;;;;17.88;12.25;;;;;;;11.02;100.00;94478.84;5111317;28;20050;-73
2022/11/13 09:29:01;;;;;;;17.00;11.57;;;;;;;10.99;100.00;94473.28;5096729;28;20045;-73
2022/11/13 09:31:28;;;;;;;14.30;9.82;;;;;;;11.21;100.00;94466.41;5111269;28;20096;-74
2022/11/13 09:33:56;;;;;;;19.42;13.00;;;;;;;11.31;99.78;94473.81;5111316;28;20890;-73
2022/11/13 09:36:23;;;;;;;19.52;12.77;;;;;;;11.58;98.61;94469.72;5111373;28;20078;-74
2022/11/13 09:38:49;;;;;;;15.40;10.15;;;;;;;11.39;97.34;94458.25;5111535;28;20075;-73
2022/11/13 09:41:19;;;;;;;17.23;11.93;;;;;;;11.59;100.00;94462.78;5110747;28;20101;-74
2022/11/13 09:43:50;;;;;;;15.65;10.15;;;;;;;11.60;95.59;94472.91;5111605;28;20120;-73
2022/11/13 09:46:25;;;;;;;17.88;11.70;;;;;;;11.80;98.61;94459.41;5111184;28;20052;-74
2022/11/13 09:48:57;;;;;;;18.03;10.67;;;;;;;11.18;97.72;94447.00;5111179;28;20381;-74
2022/11/13 09:51:27;;;;;;;15.27;10.30;;;;;;;11.29;97.23;94461.13;5096431;28;20308;-74
2022/11/13 09:53:54;;;;;;;15.07;10.65;;;;;;;11.46;96.93;94458.31;5100465;28;20498;-74
2022/11/13 09:56:31;;;;;;;20.23;12.80;;;;;;;11.42;100.00;94437.31;5093189;28;20059;-74
2022/11/13 09:59:06;;;;;;;20.25;12.02;;;;;;;11.61;97.27;94455.69;5110810;28;20051;-74
2022/11/13 10:01:46;;;;;;;22.55;12.65;;;;;;;11.69;93.56;94457.34;5108326;28;20051;-74
2022/11/13 10:04:19;;;;;;;20.35;12.10;;;;;;;11.30;94.67;94436.22;5110049;28;20052;-74
2022/11/13 10:07:00;;;;;;;20.77;12.48;;;;;;;11.02;99.73;94426.66;5110652;28;20402;-74
2022/11/13 10:09:38;;;;;;;21.17;12.60;;;;;;;11.10;98.02;94431.66;5103603;28;20043;-75
2022/11/13 10:12:07;;;;;;;34.75;14.27;;;;;;;11.32;100.00;94414.47;5104887;28;20505;-74
2022/11/13 10:14:38;;;;;;;18.38;11.55;;;;;;;11.56;98.12;94430.50;5110928;28;20087;-75
2022/11/13 10:17:12;;;;;;;26.23;14.05;;;;;;;11.84;100.00;94421.19;5099640;27;20105;-74
2022/11/13 10:19:49;;;;;;;21.70;12.35;;;;;;;11.82;95.77;94426.56;5083973;28;20485;-74
2022/11/13 10:22:22;;;;;;;20.08;12.45;;;;;;;12.05;99.63;94411.88;5110212;28;20497;-74
2022/11/13 10:24:52;;;;;;;23.88;14.63;;;;;;;12.32;97.78;94417.19;5110695;28;20040;-74
2022/11/13 10:27:19;;;;;;;58.85;31.48;;;;;;;12.47;94.66;94415.28;5110565;28;20055;-74
2022/11/13 10:29:46;;;;;;;27.58;15.93;;;;;;;12.60;94.78;94411.16;5110670;28;20105;-74
2022/11/13 10:32:19;;;;;;;16.45;9.57;;;;;;;12.39;88.84;94405.94;5110502;28;20055;-75
2022/11/13 10:34:52;;;;;;;15.70;9.95;;;;;;;12.28;89.90;94403.91;5110365;28;20541;-75
2022/11/13 10:37:45;;;;;;;14.25;9.90;;;;;;;12.08;89.39;94419.22;5110323;28;20050;-75
2022/11/13 10:40:11;;;;;;;16.77;10.50;;;;;;;12.02;92.17;94403.53;5110195;28;20091;-74
2022/11/13 10:42:40;;;;;;;26.05;13.27;;;;;;;12.26;96.56;94396.34;5110120;28;20390;-72
2022/11/13 10:45:15;;;;;;;26.98;15.55;;;;;;;12.47;94.40;94389.50;5110259;28;20051;-72
2022/11/13 10:47:47;;;;;;;19.50;11.70;;;;;;;12.06;91.59;94390.28;5110320;28;20055;-72
2022/11/13 10:50:23;;;;;;;19.90;11.63;;;;;;;11.59;93.95;94395.88;5083115;28;20157;-74
2022/11/13 10:52:51;;;;;;;21.57;11.90;;;;;;;11.78;94.01;94389.31;5110148;28;20047;-75
2022/11/13 10:55:25;;;;;;;20.63;12.60;;;;;;;11.59;95.46;94375.31;5081286;28;20278;-74
2022/11/13 10:57:56;;;;;;;19.25;11.15;;;;;;;11.79;91.97;94384.97;5109734;28;20073;-74
2022/11/13 11:00:26;;;;;;;20.33;11.88;;;;;;;12.00;92.51;94382.28;5109920;28;20501;-74
2022/11/13 11:02:53;;;;;;;21.42;12.63;;;;;;;12.12;94.25;94376.66;5105354;28;20500;-74
2022/11/13 11:05:23;;;;;;;21.38;11.32;;;;;;;11.92;88.65;94351.56;5109706;28;20071;-74
2022/11/13 11:07:51;;;;;;;25.10;14.40;;;;;;;12.25;91.98;94375.91;5109873;28;20040;-75
2022/11/13 11:10:30;;;;;;;21.20;12.35;;;;;;;11.75;90.82;94371.63;5109817;28;20051;-75
2022/11/13 11:13:02;;;;;;;16.00;10.68;;;;;;;11.55;90.72;94380.03;5093575;28;20076;-75
2022/11/13 11:15:36;;;;;;;22.17;12.80;;;;;;;11.81;91.81;94375.25;5098947;28;20140;-75
2022/11/13 11:18:07;;;;;;;27.60;13.40;;;;;;;11.98;89.28;94366.25;5087491;28;20056;-74
2022/11/13 11:20:45;;;;;;;18.58;11.52;;;;;;;11.72;89.17;94362.50;5086684;28;20047;-74
2022/11/13 11:23:23;;;;;;;16.92;9.88;;;;;;;11.67;88.81;94353.78;5089481;28;20513;-75
2022/11/13 11:25:54;;;;;;;20.38;11.75;;;;;;;11.88;93.52;94350.34;5107829;28;20051;-74